createdAt,value
2024-05-09T00:02:49.116Z,14.15
2024-05-09T00:05:51.694Z,14.18
2024-05-09T00:08:54.200Z,14.20
2024-05-09T00:11:56.977Z,14.20
2024-05-09T00:14:59.504Z,14.18
2024-05-09T00:18:02.384Z,14.17
2024-05-09T00:21:06.939Z,14.17
2024-05-09T00:24:09.529Z,14.16
2024-05-09T00:27:13.343Z,14.16
2024-05-09T00:30:24.193Z,14.18
2024-05-09T00:33:34.046Z,14.20
2024-05-09T00:36:36.673Z,14.21
2024-05-09T00:39:39.263Z,14.20
2024-05-09T00:42:41.708Z,14.21
2024-05-09T00:45:44.415Z,14.22
2024-05-09T00:48:47.240Z,14.26
2024-05-09T00:51:50.298Z,14.29
2024-05-09T00:54:52.803Z,14.30
2024-05-09T00:57:55.262Z,14.33
2024-05-09T01:00:58.194Z,14.32
2024-05-09T01:04:00.802Z,14.34
2024-05-09T01:07:03.482Z,14.36
2024-05-09T01:10:11.496Z,14.34
2024-05-09T01:13:16.550Z,14.39
2024-05-09T01:16:19.053Z,14.38
2024-05-09T01:19:28.142Z,14.38
2024-05-09T01:22:30.937Z,14.37
2024-05-09T01:25:33.487Z,14.35
2024-05-09T01:28:36.011Z,14.36
2024-05-09T01:31:38.559Z,14.35
2024-05-09T01:34:41.099Z,14.36
2024-05-09T01:37:43.723Z,14.35
2024-05-09T01:40:47.169Z,14.34
2024-05-09T01:43:49.812Z,14.34
2024-05-09T01:46:52.402Z,14.36
2024-05-09T01:49:54.974Z,14.35
2024-05-09T01:52:57.558Z,14.35
2024-05-09T01:56:00.065Z,14.34
2024-05-09T01:59:02.653Z,14.32
2024-05-09T02:02:05.372Z,14.34
2024-05-09T02:05:08.326Z,14.32
2024-05-09T02:08:17.605Z,14.30
2024-05-09T02:11:20.720Z,14.31
2024-05-09T02:14:23.472Z,14.28
2024-05-09T02:17:26.251Z,14.22
2024-05-09T02:20:35.538Z,14.19
2024-05-09T02:23:39.337Z,14.11
2024-05-09T02:26:41.872Z,14.06
2024-05-09T02:29:45.305Z,14.02
2024-05-09T02:32:48.070Z,13.98
2024-05-09T02:35:50.718Z,13.96
2024-05-09T02:38:53.263Z,13.95
2024-05-09T02:41:55.708Z,13.94
2024-05-09T02:44:58.250Z,13.93
2024-05-09T02:48:01.481Z,13.94
2024-05-09T02:51:04.922Z,13.95
2024-05-09T02:54:07.948Z,13.95
2024-05-09T02:57:10.500Z,13.95
2024-05-09T03:00:19.034Z,13.95
2024-05-09T03:03:28.767Z,13.96
2024-05-09T03:06:31.394Z,13.95
2024-05-09T03:09:33.971Z,13.93
2024-05-09T03:12:39.063Z,13.91
2024-05-09T03:15:42.141Z,13.92
2024-05-09T03:18:45.014Z,13.92
2024-05-09T03:21:47.578Z,13.90
2024-05-09T03:24:50.040Z,13.89
2024-05-09T03:27:53.650Z,13.93
2024-05-09T03:30:56.139Z,13.90
2024-05-09T03:33:58.743Z,13.88
2024-05-09T03:37:01.310Z,13.89
2024-05-09T03:40:05.596Z,13.92
2024-05-09T03:43:09.584Z,13.97
2024-05-09T03:46:12.056Z,14.03
2024-05-09T03:49:14.677Z,14.07
2024-05-09T03:52:17.261Z,14.03
2024-05-09T03:55:20.006Z,14.18
2024-05-09T03:58:22.601Z,14.18
2024-05-09T04:01:30.210Z,14.25
2024-05-09T04:04:32.890Z,14.31
2024-05-09T04:07:37.601Z,14.34
2024-05-09T04:10:40.867Z,14.37
2024-05-09T04:13:43.654Z,14.40
2024-05-09T04:16:46.366Z,14.49
2024-05-09T04:19:48.998Z,14.57
2024-05-09T04:22:51.537Z,14.65
2024-05-09T04:25:54.165Z,14.69
2024-05-09T04:28:56.686Z,14.78
2024-05-09T04:31:59.400Z,14.86
2024-05-09T04:35:01.916Z,14.88
2024-05-09T04:38:05.747Z,14.92
2024-05-09T04:41:08.599Z,14.91
2024-05-09T04:44:11.189Z,14.93
2024-05-09T04:47:14.071Z,14.90
2024-05-09T04:50:24.672Z,14.94
2024-05-09T04:53:32.047Z,14.89
2024-05-09T04:56:34.609Z,14.89
2024-05-09T04:59:37.145Z,14.84
2024-05-09T05:02:39.824Z,14.92
2024-05-09T05:05:42.774Z,14.97
2024-05-09T05:08:45.624Z,15.02
2024-05-09T05:11:48.218Z,15.19
2024-05-09T05:14:50.803Z,15.36
2024-05-09T05:17:53.500Z,15.48
2024-05-09T05:20:56.448Z,15.61
2024-05-09T05:23:59.098Z,15.82
2024-05-09T05:27:01.592Z,15.88
2024-05-09T05:30:07.359Z,16.09
2024-05-09T05:33:13.317Z,16.39
2024-05-09T05:36:16.100Z,16.65
2024-05-09T05:39:18.593Z,16.74
2024-05-09T05:42:21.143Z,16.85
2024-05-09T05:45:23.703Z,16.79
2024-05-09T05:48:26.320Z,16.88
2024-05-09T05:51:28.905Z,16.83
2024-05-09T05:54:31.483Z,16.89
2024-05-09T05:57:34.326Z,16.96
2024-05-09T06:00:39.298Z,16.95
2024-05-09T06:03:43.346Z,17.12
2024-05-09T06:06:45.942Z,17.07
2024-05-09T06:09:49.968Z,17.25
2024-05-09T06:12:52.955Z,17.18
2024-05-09T06:15:55.435Z,17.05
2024-05-09T06:18:58.101Z,16.84
2024-05-09T06:22:00.834Z,16.83
2024-05-09T06:25:03.369Z,16.66
2024-05-09T06:28:06.236Z,16.66
2024-05-09T06:31:08.718Z,16.58
2024-05-09T06:34:11.379Z,16.67
2024-05-09T06:37:13.963Z,16.63
2024-05-09T06:40:21.412Z,16.64
2024-05-09T06:43:28.008Z,16.47
2024-05-09T06:46:30.657Z,16.76
2024-05-09T06:49:33.206Z,16.90
2024-05-09T06:52:35.809Z,17.41
2024-05-09T06:55:38.389Z,18.22
2024-05-09T06:58:40.918Z,19.73
2024-05-09T07:01:43.677Z,21.02
2024-05-09T07:04:46.354Z,21.27
2024-05-09T07:07:48.977Z,21.93
2024-05-09T07:10:51.603Z,21.63
2024-05-09T07:13:54.317Z,24.52
2024-05-09T07:16:56.949Z,24.28
2024-05-09T07:20:00.383Z,23.74
2024-05-09T07:23:03.374Z,25.12
2024-05-09T07:26:06.084Z,27.81
2024-05-09T07:29:08.633Z,28.59
2024-05-09T07:32:11.462Z,29.42
2024-05-09T07:35:14.086Z,29.24
2024-05-09T07:38:16.704Z,30.76
2024-05-09T07:41:19.297Z,30.04
2024-05-09T07:44:21.915Z,26.74
2024-05-09T07:48:56.833Z,28.48
2024-05-09T07:53:54.885Z,25.36
2024-05-09T07:56:59.864Z,24.55
2024-05-09T08:00:02.505Z,24.58
2024-05-09T08:03:05.267Z,27.49
2024-05-09T08:06:07.774Z,29.19
2024-05-09T08:09:13.907Z,31.38
2024-05-09T08:12:21.749Z,32.39
2024-05-09T08:15:24.229Z,32.92
2024-05-09T08:18:26.869Z,32.66
2024-05-09T08:21:30.082Z,32.05
2024-05-09T08:24:33.761Z,32.30
2024-05-09T08:27:37.132Z,32.71
2024-05-09T08:30:39.888Z,33.98
2024-05-09T08:33:47.228Z,31.84
2024-05-09T08:36:50.189Z,31.48
2024-05-09T08:39:52.798Z,32.24
2024-05-09T08:42:56.513Z,33.39
2024-05-09T08:45:59.473Z,33.22
2024-05-09T08:49:03.161Z,33.55
2024-05-09T08:52:06.159Z,33.03
2024-05-09T08:55:08.837Z,33.98
2024-05-09T08:58:16.609Z,33.72
2024-05-09T09:01:19.945Z,34.15
2024-05-09T09:04:23.170Z,34.05
2024-05-09T09:07:26.364Z,34.72
2024-05-09T09:10:32.210Z,34.23
2024-05-09T09:13:35.646Z,34.06
2024-05-09T09:16:38.158Z,34.39
2024-05-09T09:19:40.769Z,34.24
2024-05-09T09:22:43.277Z,32.68
2024-05-09T09:25:45.804Z,33.17
2024-05-09T09:28:48.363Z,34.62
2024-05-09T09:32:04.399Z,34.33
2024-05-09T09:35:07.416Z,33.89
2024-05-09T09:38:10.911Z,33.77
2024-05-09T09:41:13.860Z,34.06
2024-05-09T09:44:16.352Z,32.30
2024-05-09T09:47:19.127Z,33.50
2024-05-09T09:50:27.876Z,33.40
2024-05-09T09:53:36.600Z,34.79
2024-05-09T09:56:39.406Z,33.47
2024-05-09T09:59:43.585Z,33.20
2024-05-09T10:02:46.103Z,32.43
2024-05-09T10:05:48.724Z,32.38
2024-05-09T10:08:51.285Z,33.33
2024-05-09T10:11:59.744Z,31.53
2024-05-09T10:15:09.702Z,33.12
2024-05-09T10:18:12.514Z,32.73
2024-05-09T10:21:18.896Z,32.31
2024-05-09T10:24:21.396Z,31.83
2024-05-09T10:27:27.981Z,31.82
2024-05-09T10:30:35.809Z,33.11
2024-05-09T10:33:40.225Z,31.34
2024-05-09T10:36:45.988Z,32.47
2024-05-09T10:39:48.550Z,32.18
2024-05-09T10:42:51.173Z,32.17
2024-05-09T10:45:53.732Z,32.88
2024-05-09T10:48:56.351Z,32.90
2024-05-09T10:51:58.963Z,33.31
2024-05-09T10:55:03.084Z,33.21
2024-05-09T10:58:17.675Z,33.07
2024-05-09T11:01:20.708Z,31.69
2024-05-09T11:04:23.353Z,32.09
2024-05-09T11:07:25.980Z,32.77
2024-05-09T11:10:33.738Z,32.60
2024-05-09T11:13:38.348Z,32.37
2024-05-09T11:16:40.873Z,32.27
2024-05-09T11:19:45.105Z,32.03
2024-05-09T11:22:47.612Z,31.91
2024-05-09T11:25:51.074Z,31.25
2024-05-09T11:28:53.630Z,30.68
2024-05-09T11:31:56.174Z,31.16
2024-05-09T11:34:58.746Z,30.91
2024-05-09T11:38:01.307Z,31.07
2024-05-09T11:41:04.601Z,31.18
2024-05-09T11:44:07.269Z,30.47
2024-05-09T11:47:09.797Z,30.30
2024-05-09T11:51:07.333Z,30.28
2024-05-09T11:54:09.966Z,30.12
2024-05-09T11:57:12.535Z,30.00
2024-05-09T12:01:27.702Z,30.23
2024-05-09T12:04:30.799Z,30.46
2024-05-09T12:07:33.532Z,30.33
2024-05-09T12:10:36.942Z,30.12
2024-05-09T12:13:40.239Z,29.90
2024-05-09T12:17:50.931Z,29.89
2024-05-09T12:20:53.850Z,29.23
2024-05-09T12:23:56.828Z,29.57
2024-05-09T12:26:59.294Z,29.16
2024-05-09T12:30:01.848Z,29.72
2024-05-09T12:33:04.789Z,29.59
2024-05-09T12:36:07.784Z,29.60
2024-05-09T12:39:10.275Z,29.37
2024-05-09T12:42:22.303Z,29.24
2024-05-09T12:45:29.330Z,29.18
2024-05-09T12:48:32.046Z,29.30
2024-05-09T12:51:34.611Z,29.06
2024-05-09T12:54:37.238Z,29.32
2024-05-09T12:57:39.836Z,29.39
2024-05-09T13:00:42.605Z,29.20
2024-05-09T13:03:45.385Z,29.16
2024-05-09T13:06:48.945Z,28.89
2024-05-09T13:09:51.489Z,29.03
2024-05-09T13:15:34.969Z,28.68
2024-05-09T13:20:55.051Z,28.67
2024-05-09T13:25:27.663Z,28.50
2024-05-09T13:28:32.404Z,28.41
2024-05-09T13:31:35.087Z,28.36
2024-05-09T13:34:37.717Z,28.20
2024-05-09T13:37:40.212Z,28.27
2024-05-09T13:40:43.034Z,27.85
2024-05-09T13:43:45.571Z,28.06
2024-05-09T13:46:48.141Z,27.90
2024-05-09T13:49:50.754Z,27.61
2024-05-09T13:52:53.304Z,27.48
2024-05-09T13:55:55.918Z,27.42
2024-05-09T13:58:58.478Z,27.24
2024-05-09T14:02:01.287Z,27.15
2024-05-09T14:05:04.044Z,27.06
2024-05-09T14:08:06.889Z,26.87
2024-05-09T14:11:09.431Z,26.42
2024-05-09T14:14:11.904Z,26.46
2024-05-09T14:17:14.482Z,26.16
2024-05-09T14:20:27.823Z,26.04
2024-05-09T14:23:33.822Z,25.82
2024-05-09T14:27:20.879Z,25.63
2024-05-09T14:30:30.991Z,25.43
2024-05-09T14:33:39.197Z,25.27
2024-05-09T14:36:41.820Z,25.23
2024-05-09T14:39:44.344Z,25.01
2024-05-09T14:42:46.854Z,24.81
2024-05-09T14:45:49.441Z,24.80
2024-05-09T14:48:52.096Z,24.65
2024-05-09T14:51:54.899Z,24.39
2024-05-09T14:58:02.063Z,24.28
2024-05-09T15:01:04.804Z,24.11
2024-05-09T15:04:07.474Z,24.06
2024-05-09T15:07:11.530Z,24.01
2024-05-09T15:10:23.681Z,23.81
2024-05-09T15:13:34.046Z,23.73
2024-05-09T15:16:36.695Z,23.62
2024-05-09T15:19:39.531Z,23.60
2024-05-09T15:22:42.128Z,23.38
2024-05-09T15:25:44.987Z,23.15
2024-05-09T15:28:47.592Z,23.21
2024-05-09T15:31:50.220Z,23.08
2024-05-09T15:34:52.714Z,22.90
2024-05-09T15:37:55.579Z,22.93
2024-05-09T15:40:58.160Z,22.90
2024-05-09T15:44:00.807Z,22.81
2024-05-09T15:47:03.420Z,22.76
2024-05-09T15:50:11.872Z,22.72
2024-05-09T15:53:19.694Z,22.61
2024-05-09T15:56:22.255Z,22.54
2024-05-09T15:59:24.756Z,22.38
2024-05-09T16:02:27.486Z,22.17
2024-05-09T16:05:30.206Z,22.16
2024-05-09T16:08:32.878Z,22.05
2024-05-09T16:11:35.383Z,21.97
2024-05-09T16:14:37.896Z,21.90
2024-05-09T16:17:40.999Z,21.86
2024-05-09T16:20:45.430Z,21.77
2024-05-09T16:23:49.684Z,21.67
2024-05-09T16:26:52.204Z,21.68
2024-05-09T16:29:56.114Z,21.60
2024-05-09T16:33:27.829Z,21.54
2024-05-09T16:36:30.713Z,21.55
2024-05-09T16:39:33.259Z,21.42
2024-05-09T16:42:35.847Z,21.39
2024-05-09T16:45:41.593Z,21.32
2024-05-09T16:48:46.550Z,21.29
2024-05-09T16:52:58.345Z,21.24
2024-05-09T16:56:02.284Z,21.10
2024-05-09T16:59:05.071Z,21.05
2024-05-09T17:02:07.658Z,20.84
2024-05-09T17:05:10.894Z,20.90
2024-05-09T17:08:15.529Z,20.86
2024-05-09T17:11:18.132Z,20.78
2024-05-09T17:14:20.746Z,20.73
2024-05-09T17:17:23.325Z,20.68
2024-05-09T17:20:32.555Z,20.53
2024-05-09T17:23:38.244Z,20.40
2024-05-09T17:26:40.763Z,20.36
2024-05-09T17:29:43.983Z,20.23
2024-05-09T17:32:46.586Z,20.15
2024-05-09T17:35:50.908Z,20.15
2024-05-09T17:38:53.456Z,20.09
2024-05-09T17:41:55.929Z,19.95
2024-05-09T17:44:58.473Z,19.85
2024-05-09T17:48:01.511Z,19.60
2024-05-09T17:51:04.722Z,19.62
2024-05-09T17:54:07.268Z,19.49
2024-05-09T17:57:09.870Z,19.34
2024-05-09T18:00:17.280Z,19.17
2024-05-09T18:03:23.834Z,19.03
2024-05-09T18:06:26.483Z,18.91
2024-05-09T18:09:29.001Z,18.81
2024-05-09T18:12:31.677Z,18.78
2024-05-09T18:15:34.526Z,18.72
2024-05-09T18:18:37.315Z,18.64
2024-05-09T18:21:40.497Z,18.54
2024-05-09T18:24:43.093Z,18.41
2024-05-09T18:27:45.849Z,18.38
2024-05-09T18:30:48.534Z,18.15
2024-05-09T18:33:51.688Z,18.09
2024-05-09T18:36:55.213Z,17.99
2024-05-09T18:39:58.034Z,17.78
2024-05-09T18:43:01.191Z,17.70
2024-05-09T18:46:04.903Z,17.55
2024-05-09T18:49:07.920Z,17.42
2024-05-09T18:52:10.681Z,17.27
2024-05-09T18:55:14.220Z,17.09
2024-05-09T18:58:18.727Z,16.94
2024-05-09T19:01:21.772Z,16.84
2024-05-09T19:04:24.811Z,16.80
2024-05-09T19:07:28.229Z,16.77
2024-05-09T19:10:34.634Z,16.78
2024-05-09T19:13:38.869Z,16.74
2024-05-09T19:16:43.632Z,16.58
2024-05-09T19:19:46.698Z,16.40
2024-05-09T19:22:49.686Z,16.38
2024-05-09T19:25:52.336Z,16.24
2024-05-09T19:28:55.713Z,16.09
2024-05-09T19:31:58.566Z,15.99
2024-05-09T19:35:01.889Z,16.05
2024-05-09T19:38:05.713Z,15.98
2024-05-09T19:41:08.727Z,15.92
2024-05-09T19:44:12.047Z,15.84
2024-05-09T19:47:14.889Z,15.74
2024-05-09T19:51:15.528Z,15.70
2024-05-09T19:54:18.571Z,15.64
2024-05-09T19:57:21.504Z,15.61
2024-05-09T20:00:32.503Z,15.56
2024-05-09T20:03:39.074Z,15.45
2024-05-09T20:06:41.945Z,15.41
2024-05-09T20:09:44.723Z,15.29
2024-05-09T20:12:47.667Z,15.29
2024-05-09T20:15:50.654Z,15.34
2024-05-09T20:18:55.898Z,15.15
2024-05-09T20:22:00.691Z,15.02
2024-05-09T20:25:04.253Z,14.91
2024-05-09T20:28:09.054Z,14.80
2024-05-09T20:31:11.737Z,14.77
2024-05-09T20:34:14.778Z,14.65
2024-05-09T20:37:18.590Z,14.64
2024-05-09T20:40:29.170Z,14.56
2024-05-09T20:43:36.562Z,14.53
2024-05-09T20:46:39.298Z,14.48
2024-05-09T20:49:42.007Z,14.49
2024-05-09T20:52:44.595Z,14.39
2024-05-09T20:55:47.418Z,14.34
2024-05-09T20:58:49.896Z,14.33
2024-05-09T21:01:52.622Z,14.32
2024-05-09T21:04:55.351Z,14.22
2024-05-09T21:07:58.013Z,14.17
2024-05-09T21:11:00.622Z,14.10
2024-05-09T21:14:03.178Z,14.04
2024-05-09T21:17:05.899Z,13.98
2024-05-09T21:20:14.414Z,13.90
2024-05-09T21:23:20.083Z,13.80
2024-05-09T21:26:24.020Z,13.75
2024-05-09T21:29:26.508Z,13.62
2024-05-09T21:32:29.113Z,13.55
2024-05-09T21:35:31.691Z,13.54
2024-05-09T21:38:34.159Z,13.47
2024-05-09T21:41:36.643Z,13.51
2024-05-09T21:44:39.185Z,13.44
2024-05-09T21:47:41.854Z,13.33
2024-05-09T21:50:44.403Z,13.25
2024-05-09T21:53:46.858Z,13.16
2024-05-09T21:56:49.400Z,13.11
2024-05-09T21:59:51.888Z,13.03
2024-05-09T22:02:54.451Z,12.98
2024-05-09T22:05:57.004Z,12.89
2024-05-09T22:08:59.491Z,12.85
2024-05-09T22:12:02.003Z,12.80
2024-05-09T22:15:05.477Z,12.74
2024-05-09T22:18:09.159Z,12.74
2024-05-09T22:21:12.550Z,12.88
2024-05-09T22:24:15.062Z,12.91
2024-05-09T22:27:17.561Z,12.87
2024-05-09T22:30:24.199Z,12.78
2024-05-09T22:33:34.774Z,12.67
2024-05-09T22:36:37.386Z,12.62
2024-05-09T22:39:39.984Z,12.61
2024-05-09T22:42:42.523Z,12.58
2024-05-09T22:45:45.184Z,12.53
2024-05-09T22:48:47.778Z,12.52
2024-05-09T22:51:50.508Z,12.47
2024-05-09T22:54:53.015Z,12.46
2024-05-09T22:57:55.718Z,12.53
2024-05-09T23:00:58.500Z,12.48
2024-05-09T23:04:02.307Z,12.45
2024-05-09T23:07:04.890Z,12.31
2024-05-09T23:10:13.387Z,12.21
2024-05-09T23:13:20.341Z,12.14
2024-05-09T23:16:22.950Z,12.09
2024-05-09T23:19:25.580Z,12.04
2024-05-09T23:22:28.105Z,12.02
2024-05-09T23:25:30.558Z,12.11
2024-05-09T23:28:33.121Z,12.04
2024-05-09T23:31:35.651Z,12.04
2024-05-09T23:34:38.269Z,12.02
2024-05-09T23:37:40.816Z,11.98
2024-05-09T23:40:43.744Z,11.93
2024-05-09T23:43:46.703Z,11.86
2024-05-09T23:46:49.298Z,11.85
2024-05-09T23:49:51.858Z,11.82
2024-05-09T23:52:54.374Z,11.77
2024-05-09T23:55:56.868Z,11.73
2024-05-09T23:58:59.354Z,11.69
